Time;durP1;ratioP1;P1;durP2;ratioP2;P2;SDS_P1;SDS_P2;PMS_P1;PMS_P2;Temp;Humidity;BMP_temperature;BMP_pressure;BME280_temperature;BME280_humidity;BME280_pressure;Samples;Min_cycle;Max_cycle;Signal;HPM_P1;HPM_P2
2022/11/05 00:09:31;;;;;;;9.97;7.53;;;9.00;31.50;;;;;;5053352;28;20993;-53
2022/11/05 00:17:27;;;;;;;10.63;7.43;;;9.00;33.30;;;;;;5053079;28;20986;-53
2022/11/05 00:19:55;;;;;;;8.63;7.53;;;8.90;33.60;;;;;;5052538;28;20482;-53
2022/11/05 00:25:16;;;;;;;9.03;7.27;;;8.90;34.30;;;;;;5051950;28;20449;-52
2022/11/05 00:27:44;;;;;;;7.53;6.83;;;8.90;33.80;;;;;;5045006;28;21066;-53
2022/11/05 00:30:12;;;;;;;8.40;6.43;;;8.90;33.90;;;;;;5051417;28;20512;-52
2022/11/05 00:32:39;;;;;;;7.10;6.40;;;9.00;33.60;;;;;;5051327;28;20524;-53
2022/11/05 00:35:08;;;;;;;8.87;7.60;;;8.90;33.00;;;;;;5052248;28;20458;-52
2022/11/05 00:37:35;;;;;;;9.90;7.17;;;8.90;34.30;;;;;;5052977;28;20461;-52
2022/11/05 00:40:02;;;;;;;8.67;7.70;;;9.00;33.80;;;;;;5051606;28;20495;-52
2022/11/05 00:45:13;;;;;;;10.40;6.83;;;9.00;34.00;;;;;;5045022;28;21276;-53
2022/11/05 00:50:25;;;;;;;7.23;6.53;;;9.00;34.40;;;;;;5050235;28;20445;-53
2022/11/05 00:52:55;;;;;;;7.03;6.13;;;8.90;34.80;;;;;;5049740;28;20458;-52
2022/11/05 00:55:23;;;;;;;6.80;5.50;;;8.90;34.30;;;;;;5048610;28;20465;-54
2022/11/05 00:57:50;;;;;;;5.93;5.40;;;8.90;34.20;;;;;;5050256;28;20469;-53
2022/11/05 01:00:17;;;;;;;10.57;5.90;;;8.90;34.90;;;;;;5052342;28;20489;-53
2022/11/05 01:02:43;;;;;;;5.63;5.13;;;8.90;34.00;;;;;;5050281;28;20967;-52
2022/11/05 01:05:10;;;;;;;7.70;5.80;;;8.80;34.60;;;;;;5051403;28;20536;-53
2022/11/05 01:07:38;;;;;;;9.23;6.33;;;8.80;34.80;;;;;;5043607;28;20886;-53
2022/11/05 01:10:05;;;;;;;8.50;6.20;;;8.80;34.70;;;;;;5047186;28;20485;-53
2022/11/05 01:12:32;;;;;;;5.70;5.30;;;8.80;35.50;;;;;;5049088;28;20543;-53
2022/11/05 01:14:59;;;;;;;7.27;5.33;;;8.80;36.50;;;;;;5046233;28;21053;-53
2022/11/05 01:17:25;;;;;;;9.10;6.00;;;8.80;36.50;;;;;;5050733;28;20523;-54
2022/11/05 01:19:52;;;;;;;7.93;6.20;;;8.80;35.50;;;;;;5052817;28;20528;-53
2022/11/05 01:22:18;;;;;;;7.93;5.40;;;8.80;36.00;;;;;;5051619;28;20504;-52
2022/11/05 01:24:46;;;;;;;6.63;5.93;;;8.80;36.70;;;;;;5049924;28;20449;-53
2022/11/05 01:27:13;;;;;;;8.07;5.33;;;8.70;36.90;;;;;;5050696;28;20462;-53
2022/11/05 01:29:40;;;;;;;9.13;5.57;;;8.70;36.80;;;;;;5050850;28;20473;-52
2022/11/05 01:32:07;;;;;;;6.17;5.57;;;8.70;37.50;;;;;;5048876;28;20875;-52
2022/11/05 01:34:33;;;;;;;10.03;6.93;;;8.70;38.40;;;;;;5051632;28;20478;-52
2022/11/05 01:37:00;;;;;;;7.07;6.10;;;8.70;39.50;;;;;;5051135;28;20462;-52
2022/11/05 01:39:27;;;;;;;7.00;6.30;;;8.70;39.00;;;;;;5051776;28;20481;-53
2022/11/05 01:41:55;;;;;;;8.80;5.60;;;8.60;39.80;;;;;;5046831;28;20892;-52
2022/11/05 01:44:49;;;;;;;8.57;6.00;;;8.60;39.40;;;;;;5047749;28;20581;-53
2022/11/05 01:47:25;;;;;;;6.67;5.93;;;8.60;40.60;;;;;;5048580;28;20492;-53
2022/11/05 01:49:52;;;;;;;8.27;5.93;;;8.50;41.40;;;;;;5050515;28;20485;-53
2022/11/05 01:52:19;;;;;;;6.53;5.87;;;8.50;41.20;;;;;;5050582;28;20519;-52
2022/11/05 01:54:46;;;;;;;9.27;5.63;;;8.50;42.30;;;;;;5051440;28;20538;-53
2022/11/05 01:57:15;;;;;;;10.93;5.43;;;8.50;43.40;;;;;;5049578;28;20469;-52
2022/11/05 01:59:44;;;;;;;8.30;5.80;;;8.50;44.40;;;;;;5047071;28;20477;-53
2022/11/05 02:02:11;;;;;;;6.63;5.70;;;8.40;43.70;;;;;;5048952;28;20466;-53
2022/11/05 02:04:43;;;;;;;5.43;4.90;;;8.40;44.10;;;;;;5051426;28;20508;-52
2022/11/05 02:07:11;;;;;;;5.63;4.70;;;8.40;44.40;;;;;;5050504;28;20470;-53
2022/11/05 02:09:43;;;;;;;6.03;5.03;;;8.40;44.70;;;;;;5043822;28;20541;-52
2022/11/05 02:12:12;;;;;;;6.10;5.50;;;8.40;45.20;;;;;;5049767;28;20466;-53
2022/11/05 02:14:40;;;;;;;6.00;5.40;;;8.30;45.80;;;;;;5048441;28;20513;-53
2022/11/05 02:17:16;;;;;;;7.70;5.27;;;8.30;46.30;;;;;;5049239;28;20470;-52
2022/11/05 02:20:09;;;;;;;5.73;4.83;;;8.30;46.40;;;;;;5046467;28;20485;-52
2022/11/05 02:23:09;;;;;;;6.70;5.13;;;8.30;47.00;;;;;;5050914;28;20466;-52
2022/11/05 02:26:03;;;;;;;6.57;5.10;;;8.30;47.40;;;;;;5050890;28;20462;-53
2022/11/05 02:28:54;;;;;;;5.23;4.63;;;8.20;48.20;;;;;;5038911;28;20991;-53
2022/11/05 02:31:28;;;;;;;6.83;5.40;;;8.20;47.70;;;;;;5046457;28;20481;-53
2022/11/05 02:34:06;;;;;;;5.37;4.87;;;8.20;50.80;;;;;;5050608;28;20517;-52
2022/11/05 02:36:43;;;;;;;8.60;5.13;;;8.10;51.10;;;;;;5051433;28;20480;-52
2022/11/05 02:39:22;;;;;;;6.10;5.50;;;8.00;50.90;;;;;;5052421;28;20516;-52
2022/11/05 02:41:58;;;;;;;5.03;4.73;;;8.00;51.30;;;;;;5039716;28;20490;-53
2022/11/05 02:44:32;;;;;;;12.90;5.70;;;7.90;52.60;;;;;;5048987;28;20481;-53
2022/11/05 02:47:06;;;;;;;7.43;5.77;;;7.90;54.20;;;;;;5048828;28;20485;-52
2022/11/05 02:49:42;;;;;;;6.67;5.37;;;7.80;54.10;;;;;;5048246;28;20571;-53
2022/11/05 02:52:15;;;;;;;7.13;5.30;;;7.80;54.60;;;;;;5050343;28;20485;-52
2022/11/05 02:54:45;;;;;;;7.93;5.40;;;7.80;55.20;;;;;;5049644;28;20506;-53
2022/11/05 02:57:12;;;;;;;5.43;4.90;;;7.80;56.90;;;;;;5047829;28;20532;-53
2022/11/05 02:59:38;;;;;;;10.10;6.97;;;7.70;56.40;;;;;;5051292;28;20535;-53
2022/11/05 03:02:06;;;;;;;6.20;5.60;;;7.70;56.80;;;;;;5048588;28;21023;-53
2022/11/05 03:04:33;;;;;;;8.73;5.37;;;7.60;57.90;;;;;;5049566;28;20493;-53
2022/11/05 03:07:14;;;;;;;8.13;5.13;;;7.60;59.20;;;;;;5050366;28;20457;-53
2022/11/05 03:10:16;;;;;;;14.30;6.00;;;7.60;60.60;;;;;;5047637;28;20517;-52
2022/11/05 03:12:51;;;;;;;12.00;6.20;;;7.60;60.20;;;;;;5042894;28;20457;-54
2022/11/05 03:15:31;;;;;;;8.27;6.03;;;7.60;61.80;;;;;;5049395;28;20550;-53
2022/11/05 03:18:09;;;;;;;9.97;6.17;;;7.50;60.30;;;;;;5046206;28;20904;-52
2022/11/05 03:20:40;;;;;;;7.93;6.07;;;7.50;62.60;;;;;;5046657;28;22150;-53
2022/11/05 03:23:14;;;;;;;6.27;5.67;;;7.50;62.60;;;;;;5041362;28;20990;-53
2022/11/05 03:25:47;;;;;;;9.77;5.67;;;7.50;65.50;;;;;;5049177;28;20893;-52
2022/11/05 03:28:15;;;;;;;9.47;5.90;;;7.40;62.30;;;;;;5049175;28;20511;-53
2022/11/05 03:30:43;;;;;;;6.00;5.10;;;7.40;63.30;;;;;;5050421;28;20490;-52
2022/11/05 03:33:16;;;;;;;6.00;5.50;;;7.40;62.10;;;;;;5050217;28;20489;-52
2022/11/05 03:35:47;;;;;;;11.47;6.37;;;7.30;61.60;;;;;;5042107;28;20517;-54
2022/11/05 03:38:18;;;;;;;7.70;5.73;;;7.30;61.90;;;;;;5044562;28;21015;-53
2022/11/05 03:40:47;;;;;;;10.70;5.93;;;7.30;62.20;;;;;;5050057;28;20485;-52
2022/11/05 03:43:14;;;;;;;6.30;5.80;;;7.30;63.20;;;;;;5049829;28;20973;-52
2022/11/05 03:45:46;;;;;;;6.77;5.33;;;7.30;63.80;;;;;;5049299;28;20482;-53
2022/11/05 03:48:16;;;;;;;6.80;5.33;;;7.20;63.70;;;;;;5049397;28;20548;-53
2022/11/05 03:50:55;;;;;;;15.43;6.60;;;7.20;64.00;;;;;;5042203;28;21033;-53
2022/11/05 03:53:24;;;;;;;6.40;5.80;;;7.20;63.70;;;;;;5049280;28;20528;-52
2022/11/05 03:55:56;;;;;;;7.20;5.90;;;7.20;63.80;;;;;;5048985;28;20517;-52
2022/11/05 03:58:24;;;;;;;6.63;5.27;;;7.10;65.50;;;;;;5050145;28;20509;-53
2022/11/05 04:00:51;;;;;;;5.90;5.33;;;7.10;65.40;;;;;;5048911;28;20466;-53
2022/11/05 04:03:19;;;;;;;11.40;5.80;;;7.10;66.10;;;;;;5049052;28;20501;-53
2022/11/05 04:13:22;;;;;;;5.20;4.80;;;7.10;66.00;;;;;;5046617;28;20494;-53
2022/11/05 04:14:00;;;;;;;6.33;5.70;;;7.00;66.80;;;;;;5053171;28;20947;-51
2022/11/05 04:24:06;;;;;;;6.00;5.27;;;7.00;70.10;;;;;;5052073;28;20468;-52
2022/11/05 04:24:43;;;;;;;9.60;5.77;;;6.90;68.60;;;;;;5051780;28;20808;-51
2022/11/05 04:27:10;;;;;;;7.07;5.30;;;6.90;69.70;;;;;;5045607;28;20950;-51
2022/11/05 04:32:20;;;;;;;8.73;5.37;;;6.90;69.40;;;;;;5050124;28;20444;-51
2022/11/05 04:34:48;;;;;;;7.80;6.03;;;6.80;69.60;;;;;;5044101;28;20517;-52
2022/11/05 04:37:15;;;;;;;6.90;5.30;;;6.90;70.90;;;;;;5051306;28;20485;-52
2022/11/05 04:39:41;;;;;;;12.27;5.93;;;6.90;70.90;;;;;;5052595;28;20524;-51
2022/11/05 04:42:08;;;;;;;11.17;6.00;;;6.90;71.00;;;;;;5049376;28;20508;-52
2022/11/05 04:44:34;;;;;;;9.53;6.00;;;6.90;70.90;;;;;;5052937;28;20486;-51
2022/11/05 04:47:01;;;;;;;9.27;5.90;;;6.90;71.30;;;;;;5051384;28;20465;-51
2022/11/05 04:49:28;;;;;;;7.27;5.10;;;6.80;70.60;;;;;;5049983;28;21045;-52
2022/11/05 04:51:56;;;;;;;7.60;5.60;;;6.80;70.40;;;;;;5047590;28;21598;-51
2022/11/05 04:54:22;;;;;;;8.50;7.60;;;6.80;68.10;;;;;;5051755;28;20505;-52
2022/11/05 04:56:49;;;;;;;9.57;5.23;;;6.80;67.90;;;;;;5051913;28;20527;-51
2022/11/05 04:59:15;;;;;;;10.40;5.67;;;6.80;68.80;;;;;;5049900;28;21000;-52
2022/11/05 05:01:42;;;;;;;9.93;5.77;;;6.80;69.10;;;;;;5046075;28;20486;-52
2022/11/05 05:04:08;;;;;;;8.43;5.37;;;6.80;70.20;;;;;;5049036;28;20523;-51
2022/11/05 05:06:35;;;;;;;10.63;6.30;;;6.70;68.70;;;;;;5053022;28;20489;-52
2022/11/05 05:09:03;;;;;;;7.47;5.00;;;6.70;70.20;;;;;;5050497;28;20481;-52
2022/11/05 05:11:29;;;;;;;7.63;6.17;;;6.70;69.50;;;;;;5051374;28;21417;-51
2022/11/05 05:13:56;;;;;;;5.90;5.27;;;6.70;71.30;;;;;;5051938;28;20458;-52
2022/11/05 05:16:24;;;;;;;6.13;5.57;;;6.70;71.00;;;;;;5048322;28;20575;-52
2022/11/05 05:18:52;;;;;;;7.03;4.83;;;6.70;71.00;;;;;;5052251;28;21203;-52
2022/11/05 05:21:37;;;;;;;5.73;5.13;;;6.60;70.90;;;;;;5053226;28;20492;-52
2022/11/05 05:24:07;;;;;;;12.23;6.23;;;6.60;72.20;;;;;;5049493;28;20536;-52
2022/11/05 05:26:34;;;;;;;11.57;7.90;;;6.60;72.40;;;;;;5052684;28;21082;-51
2022/11/05 05:29:01;;;;;;;8.67;6.50;;;6.60;72.20;;;;;;5049601;28;20522;-51
2022/11/05 05:31:27;;;;;;;13.00;8.60;;;6.60;70.80;;;;;;5038660;28;20490;-52
2022/11/05 05:33:54;;;;;;;11.70;8.43;;;6.50;72.10;;;;;;5052467;28;20515;-53
2022/11/05 05:36:21;;;;;;;9.10;6.87;;;6.50;72.00;;;;;;5051935;28;20539;-52
2022/11/05 05:38:47;;;;;;;9.87;8.20;;;6.50;73.00;;;;;;5051084;28;20489;-51
2022/11/05 05:41:16;;;;;;;8.77;7.87;;;6.50;72.80;;;;;;5045485;28;20490;-52
2022/11/05 05:43:42;;;;;;;17.47;6.77;;;6.50;71.50;;;;;;5050134;28;20489;-51
2022/11/05 05:46:12;;;;;;;11.13;6.30;;;6.40;71.70;;;;;;5051230;28;20520;-51
2022/11/05 05:48:39;;;;;;;6.93;5.57;;;6.40;71.70;;;;;;5044057;28;21047;-51
2022/11/05 05:51:07;;;;;;;7.13;5.17;;;6.40;72.50;;;;;;5049667;28;20978;-51
2022/11/05 05:53:34;;;;;;;6.27;5.60;;;6.40;74.40;;;;;;5049052;28;21046;-51
2022/11/05 05:56:01;;;;;;;5.30;4.80;;;6.40;74.20;;;;;;5049005;28;20940;-52
2022/11/05 05:58:32;;;;;;;5.33;4.80;;;6.40;74.80;;;;;;5050360;28;20521;-51
2022/11/05 06:01:00;;;;;;;7.47;5.07;;;6.30;74.50;;;;;;5045795;28;20975;-51
2022/11/05 06:03:27;;;;;;;10.37;5.13;;;6.30;75.00;;;;;;5051357;28;20458;-51
2022/11/05 06:05:53;;;;;;;10.47;5.90;;;6.30;75.30;;;;;;5050423;28;20477;-52
2022/11/05 06:08:20;;;;;;;9.27;5.00;;;6.30;75.60;;;;;;5050872;28;20493;-51
2022/11/05 06:10:51;;;;;;;6.40;5.23;;;6.30;76.20;;;;;;5050744;28;20489;-51
2022/11/05 06:13:17;;;;;;;8.70;5.77;;;6.30;75.60;;;;;;5045076;28;20449;-53
2022/11/05 06:15:45;;;;;;;5.67;4.53;;;6.40;75.30;;;;;;5048727;28;20513;-51
2022/11/05 06:18:12;;;;;;;20.20;5.20;;;6.40;74.30;;;;;;5052187;28;20838;-52
2022/11/05 06:20:38;;;;;;;5.60;5.10;;;6.40;73.80;;;;;;5050666;28;20501;-52
2022/11/05 06:23:05;;;;;;;6.80;5.17;;;6.30;73.50;;;;;;5051614;28;20477;-52
2022/11/05 06:25:31;;;;;;;6.27;4.63;;;6.30;73.60;;;;;;5052406;28;20470;-52
2022/11/05 06:27:58;;;;;;;10.57;4.63;;;6.30;74.00;;;;;;5050103;28;20521;-51
2022/11/05 06:30:25;;;;;;;6.53;5.80;;;6.30;74.90;;;;;;5050014;28;20519;-51
2022/11/05 06:32:53;;;;;;;6.17;5.10;;;6.30;74.80;;;;;;5049951;28;20489;-51
2022/11/05 06:35:20;;;;;;;6.93;5.07;;;6.30;73.80;;;;;;5050804;28;20509;-51
2022/11/05 06:37:46;;;;;;;5.33;4.70;;;6.30;74.80;;;;;;5050413;28;20462;-52
2022/11/05 06:40:13;;;;;;;7.63;4.47;;;6.30;74.50;;;;;;5043118;28;20477;-52
2022/11/05 06:42:39;;;;;;;10.87;5.50;;;6.30;74.00;;;;;;5049398;28;20485;-51
2022/11/05 06:45:07;;;;;;;12.27;6.13;;;6.30;73.00;;;;;;5048871;28;20527;-52
2022/11/05 06:47:34;;;;;;;9.53;5.57;;;6.30;73.40;;;;;;5049630;28;20539;-52
2022/11/05 06:50:02;;;;;;;6.13;4.93;;;6.30;73.00;;;;;;5050801;28;20489;-52
2022/11/05 06:52:30;;;;;;;11.53;5.30;;;6.30;71.50;;;;;;5050186;28;20521;-52
2022/11/05 06:54:56;;;;;;;6.13;5.03;;;6.30;72.10;;;;;;5044813;28;20535;-52
2022/11/05 06:57:23;;;;;;;9.33;6.00;;;6.30;69.90;;;;;;5049981;28;20466;-51
2022/11/05 06:59:49;;;;;;;7.10;4.80;;;6.30;70.30;;;;;;5051555;28;20505;-51
2022/11/05 07:02:17;;;;;;;6.97;5.10;;;6.30;69.60;;;;;;5049825;28;20493;-51
2022/11/05 07:04:43;;;;;;;11.03;6.30;;;6.30;68.10;;;;;;5051656;28;20450;-51
2022/11/05 07:07:11;;;;;;;8.93;5.23;;;6.30;65.40;;;;;;5048847;28;20500;-52
2022/11/05 07:09:41;;;;;;;10.80;6.67;;;6.30;62.50;;;;;;5044507;28;20587;-52
2022/11/05 07:12:08;;;;;;;7.47;5.50;;;6.30;62.80;;;;;;5049890;28;20528;-51
2022/11/05 07:14:35;;;;;;;8.13;4.93;;;6.30;62.50;;;;;;5050873;28;20468;-52
2022/11/05 07:17:01;;;;;;;16.30;5.10;;;6.30;62.60;;;;;;5049653;28;20926;-52
2022/11/05 07:19:28;;;;;;;7.00;5.00;;;6.40;63.00;;;;;;5051254;28;20466;-51
2022/11/05 07:21:54;;;;;;;8.10;5.60;;;6.40;61.70;;;;;;5050278;28;20559;-51
2022/11/05 07:24:22;;;;;;;9.70;5.30;;;6.40;60.80;;;;;;5051363;28;20524;-52
2022/11/05 07:26:49;;;;;;;8.00;5.70;;;6.50;59.30;;;;;;5049612;28;20575;-51
2022/11/05 07:29:15;;;;;;;6.20;5.40;;;6.50;58.80;;;;;;5049587;28;21037;-51
2022/11/05 07:31:42;;;;;;;10.23;5.73;;;6.60;56.20;;;;;;5050342;28;21036;-51
2022/11/05 07:34:08;;;;;;;9.33;5.50;;;6.60;56.60;;;;;;5050812;28;20543;-51
2022/11/05 07:36:38;;;;;;;17.70;5.13;;;6.70;53.50;;;;;;5051047;28;20517;-51
2022/11/05 07:39:04;;;;;;;12.80;6.23;;;6.70;52.60;;;;;;5050466;28;20485;-51
2022/11/05 07:41:32;;;;;;;8.13;5.53;;;6.80;50.30;;;;;;5049447;28;20490;-51
2022/11/05 07:43:59;;;;;;;9.10;6.20;;;6.90;47.70;;;;;;5038100;28;20493;-51
2022/11/05 07:46:25;;;;;;;10.27;6.37;;;7.00;42.10;;;;;;5051375;28;20515;-51
2022/11/05 07:48:52;;;;;;;8.87;6.00;;;7.00;39.10;;;;;;5054598;28;20505;-52
2022/11/05 07:51:18;;;;;;;9.07;5.93;;;7.10;38.60;;;;;;5054645;28;20476;-52
2022/11/05 07:53:47;;;;;;;16.40;6.53;;;7.20;35.90;;;;;;5051822;28;20493;-51
2022/11/05 07:56:13;;;;;;;9.70;6.57;;;7.20;35.10;;;;;;5054287;28;20505;-52
2022/11/05 07:58:41;;;;;;;7.70;6.47;;;7.30;26.30;;;;;;5049761;28;20513;-52
2022/11/05 08:01:08;;;;;;;14.23;6.87;;;7.50;26.30;;;;;;5047376;28;20469;-52
2022/11/05 08:03:35;;;;;;;15.83;7.37;;;7.40;29.40;;;;;;5053000;28;20489;-51
2022/11/05 08:06:01;;;;;;;11.67;6.53;;;7.50;38.50;;;;;;5037478;28;20549;-51
2022/11/05 08:08:28;;;;;;;7.33;6.10;;;7.30;41.10;;;;;;5049331;28;20525;-52
2022/11/05 08:11:02;;;;;;;10.17;6.27;;;7.20;42.30;;;;;;5048566;28;20528;-51
2022/11/05 08:13:29;;;;;;;7.50;5.97;;;7.30;42.50;;;;;;5051290;28;20461;-51
2022/11/05 08:15:57;;;;;;;9.60;6.00;;;7.40;42.10;;;;;;5047290;28;20485;-50
2022/11/05 08:18:30;;;;;;;6.20;5.07;;;7.50;40.60;;;;;;5040405;28;20531;-50
2022/11/05 08:20:57;;;;;;;13.63;5.27;;;7.50;42.10;;;;;;5048009;28;20489;-50
2022/11/05 08:23:23;;;;;;;8.77;5.80;;;7.50;42.10;;;;;;5044535;28;20940;-50
2022/11/05 08:25:50;;;;;;;10.30;5.17;;;7.50;43.30;;;;;;5045983;28;20944;-51
2022/11/05 08:28:16;;;;;;;10.10;5.80;;;7.60;40.80;;;;;;5050906;28;20595;-50
2022/11/05 08:30:43;;;;;;;13.73;7.80;;;7.60;40.80;;;;;;5047860;28;20545;-51
2022/11/05 08:33:12;;;;;;;10.57;6.43;;;7.70;40.30;;;;;;5050208;28;20498;-50
2022/11/05 08:35:39;;;;;;;9.17;6.53;;;7.80;42.00;;;;;;5049701;28;20579;-51
2022/11/05 08:38:07;;;;;;;13.57;6.17;;;8.20;37.70;;;;;;5048588;28;20461;-53
2022/11/05 08:40:35;;;;;;;21.87;6.67;;;8.90;44.90;;;;;;5045652;28;20456;-50
2022/11/05 08:43:03;;;;;;;8.30;5.40;;;9.50;78.80;;;;;;5048112;28;20494;-50
2022/11/05 08:45:37;;;;;;;9.30;5.27;;;10.20;99.90;;;;;;5053720;28;20876;-52
2022/11/05 08:48:05;;;;;;;12.77;5.40;;;10.60;99.90;;;;;;5066227;28;20454;-52
2022/11/05 08:50:34;;;;;;;11.90;5.70;;;10.70;99.90;;;;;;5052094;28;20513;-52
2022/11/05 08:53:00;;;;;;;14.23;5.50;;;11.00;99.90;;;;;;5051332;28;21045;-54
2022/11/05 08:55:27;;;;;;;10.67;5.30;;;10.90;25.80;;;;;;5052618;28;20504;-52
2022/11/05 08:57:58;;;;;;;18.87;5.50;;;10.80;99.90;;;;;;5047829;28;20555;-53
2022/11/05 09:00:25;;;;;;;8.80;5.00;;;10.60;99.90;;;;;;5050175;28;20491;-51
2022/11/05 09:02:51;;;;;;;11.77;6.33;;;10.30;99.90;;;;;;5057052;28;20462;-54
2022/11/05 09:05:18;;;;;;;7.50;3.93;;;10.20;99.90;;;;;;5053501;28;20482;-54
2022/11/05 09:07:46;;;;;;;6.80;4.23;;;10.10;99.90;;;;;;5052174;28;20882;-51
2022/11/05 09:10:13;;;;;;;12.03;4.30;;;10.00;99.90;;;;;;5049369;28;20497;-53
2022/11/05 09:12:39;;;;;;;8.10;4.30;;;10.00;99.90;;;;;;5049852;28;20486;-51
2022/11/05 09:15:06;;;;;;;14.63;4.70;;;10.00;99.90;;;;;;5052209;28;20466;-51
2022/11/05 09:17:33;;;;;;;13.20;4.67;;;9.70;99.90;;;;;;5048620;28;20613;-52
2022/11/05 09:20:02;;;;;;;11.20;4.10;;;9.90;99.90;;;;;;5043767;28;20479;-51
2022/11/05 09:22:28;;;;;;;11.97;4.00;;;10.20;99.90;;;;;;5048069;28;20466;-51
2022/11/05 09:24:56;;;;;;;9.70;3.93;;;10.60;99.90;;;;;;5047464;28;20523;-51
2022/11/05 09:27:23;;;;;;;14.03;4.13;;;10.90;99.90;;;;;;5052454;28;20486;-51
2022/11/05 09:29:49;;;;;;;11.10;4.00;;;10.60;99.90;;;;;;5050739;28;20535;-52
2022/11/05 09:32:18;;;;;;;15.03;4.17;;;10.90;99.90;;;;;;5051681;28;20485;-52
2022/11/05 09:34:44;;;;;;;11.10;4.50;;;12.10;54.10;;;;;;5052230;28;20458;-50
2022/11/05 09:37:11;;;;;;;6.70;3.20;;;14.00;99.90;;;;;;5050987;28;20551;-52
2022/11/05 09:39:38;;;;;;;12.33;3.43;;;15.10;99.90;;;;;;5052142;28;21057;-52
2022/11/05 09:42:08;;;;;;;10.67;3.97;;;15.60;43.40;;;;;;5048349;28;21017;-52
2022/11/05 09:44:40;;;;;;;13.03;3.43;;;15.90;43.20;;;;;;5051955;28;20512;-52
2022/11/05 09:47:12;;;;;;;12.30;5.40;;;15.60;35.30;;;;;;5047040;28;20516;-52
2022/11/05 09:49:42;;;;;;;9.70;3.47;;;15.80;66.20;;;;;;5050211;28;20573;-52
2022/11/05 09:52:13;;;;;;;10.00;3.47;;;16.20;71.20;;;;;;5052520;28;20874;-51
2022/11/05 09:54:39;;;;;;;7.70;2.63;;;16.30;83.00;;;;;;5052716;28;20446;-51
2022/11/05 09:57:13;;;;;;;7.33;3.30;;;17.50;99.90;;;;;;5052062;28;20520;-51
2022/11/05 09:59:44;;;;;;;11.27;3.97;;;17.20;99.90;;;;;;5052013;28;20604;-51
2022/11/05 10:02:17;;;;;;;14.93;3.83;;;16.60;99.90;;;;;;5051556;28;20489;-52
2022/11/05 10:04:46;;;;;;;12.03;3.47;;;16.10;78.70;;;;;;5051403;28;20490;-51
2022/11/05 10:07:16;;;;;;;9.50;2.87;;;15.20;34.20;;;;;;5050711;28;20991;-51
2022/11/05 10:09:46;;;;;;;8.03;2.90;;;15.40;55.30;;;;;;5048890;28;20540;-51
2022/11/05 10:12:21;;;;;;;8.43;2.80;;;14.70;26.50;;;;;;5047916;28;20879;-53
2022/11/05 10:14:51;;;;;;;5.40;2.80;;;13.80;99.90;;;;;;5048658;28;20460;-53
2022/11/05 10:17:23;;;;;;;13.50;3.60;;;13.50;99.90;;;;;;5045613;28;20485;-53
2022/11/05 10:19:54;;;;;;;5.43;2.80;;;13.60;99.90;;;;;;5044501;28;20481;-52
2022/11/05 10:22:20;;;;;;;5.90;3.30;;;13.60;99.90;;;;;;5051749;28;20493;-52
2022/11/05 10:24:49;;;;;;;10.80;3.40;;;13.10;99.90;;;;;;5051237;28;21013;-52
2022/11/05 10:27:22;;;;;;;5.00;2.97;;;12.60;99.90;;;;;;5049005;28;20878;-54
2022/11/05 10:29:50;;;;;;;8.40;3.33;;;12.20;99.90;;;;;;5050823;28;20485;-52
2022/11/05 10:32:25;;;;;;;9.63;2.83;;;12.50;99.90;;;;;;5043657;28;20896;-52
2022/11/05 10:34:53;;;;;;;11.60;3.27;;;12.30;99.90;;;;;;5048614;28;20485;-53
2022/11/05 10:37:21;;;;;;;10.40;2.60;;;12.40;99.90;;;;;;5051423;28;20506;-53
2022/11/05 10:39:48;;;;;;;13.33;2.90;;;12.60;99.90;;;;;;5050004;28;20720;-53
2022/11/05 10:42:36;;;;;;;10.30;2.60;;;12.60;99.90;;;;;;5047663;28;20489;-53
2022/11/05 10:45:14;;;;;;;4.90;2.60;;;12.40;99.90;;;;;;5048276;28;20458;-53
2022/11/05 10:47:53;;;;;;;9.10;3.00;;;12.30;99.90;;;;;;5042691;28;20470;-52
2022/11/05 10:50:24;;;;;;;17.60;2.40;;;12.20;99.90;;;;;;5048690;28;20510;-53
2022/11/05 10:52:57;;;;;;;15.97;2.80;;;12.70;99.90;;;;;;5047560;28;20450;-53
2022/11/05 10:55:27;;;;;;;8.70;2.13;;;12.70;99.90;;;;;;5046719;28;20465;-52
2022/11/05 10:58:06;;;;;;;10.30;3.07;;;12.50;99.90;;;;;;5049770;28;20560;-52
2022/11/05 11:00:33;;;;;;;15.47;2.70;;;12.40;99.90;;;;;;5048714;28;20473;-53
2022/11/05 11:03:03;;;;;;;6.27;1.80;;;12.80;99.90;;;;;;5046682;28;20573;-54
2022/11/05 11:05:32;;;;;;;6.40;1.83;;;12.90;99.90;;;;;;5046423;28;20458;-54
2022/11/05 11:08:03;;;;;;;5.47;2.03;;;13.10;99.90;;;;;;5049297;28;20454;-51
2022/11/05 11:10:34;;;;;;;6.23;2.17;;;13.70;99.90;;;;;;5046789;28;20975;-53
2022/11/05 11:13:02;;;;;;;8.73;2.13;;;14.40;99.90;;;;;;5050059;28;20462;-51
2022/11/05 11:15:31;;;;;;;10.53;2.40;;;13.90;99.90;;;;;;5048724;28;20458;-54
2022/11/05 11:17:58;;;;;;;7.50;2.07;;;14.10;99.90;;;;;;5048395;28;20543;-53
2022/11/05 11:20:28;;;;;;;10.30;2.40;;;14.40;91.20;;;;;;5053273;28;20559;-54
2022/11/05 11:23:16;;;;;;;13.67;2.60;;;14.30;99.90;;;;;;5053534;28;20869;-54
2022/11/05 11:25:47;;;;;;;6.80;2.70;;;13.60;99.90;;;;;;5049299;28;20468;-53
2022/11/05 11:28:21;;;;;;;5.20;2.17;;;13.10;99.90;;;;;;5052724;28;20458;-53
2022/11/05 11:30:50;;;;;;;4.80;2.67;;;13.00;99.90;;;;;;5054272;28;20461;-52
2022/11/05 11:33:21;;;;;;;5.23;1.83;;;12.80;99.90;;;;;;5052707;28;20506;-54
2022/11/05 11:35:48;;;;;;;6.93;1.70;;;12.60;99.90;;;;;;5051465;28;20570;-53
2022/11/05 11:38:17;;;;;;;5.97;2.40;;;12.50;99.90;;;;;;5052840;28;20515;-55
2022/11/05 11:40:44;;;;;;;7.70;1.73;;;12.40;99.90;;;;;;5055218;28;20843;-54
2022/11/05 11:43:21;;;;;;;10.80;2.90;;;12.30;99.90;;;;;;5053425;28;20497;-52
2022/11/05 11:45:51;;;;;;;9.10;2.50;;;12.40;99.90;;;;;;5046473;28;20546;-52
2022/11/05 11:48:21;;;;;;;5.90;1.90;;;12.50;99.90;;;;;;5049990;28;21046;-54
2022/11/05 11:50:48;;;;;;;4.40;1.67;;;12.40;99.90;;;;;;5053789;28;20493;-53
2022/11/05 11:53:28;;;;;;;5.23;1.67;;;12.40;99.90;;;;;;5050523;28;20543;-53
2022/11/05 11:56:00;;;;;;;5.30;1.70;;;12.70;99.90;;;;;;5054692;28;20961;-54
2022/11/05 11:58:41;;;;;;;7.23;2.83;;;13.10;99.90;;;;;;5052299;28;20489;-51
2022/11/05 12:01:45;;;;;;;4.17;1.47;;;13.10;99.90;;;;;;5053165;28;20523;-52
2022/11/05 12:04:34;;;;;;;6.93;2.10;;;13.70;99.90;;;;;;5051284;28;20542;-54
2022/11/05 12:07:12;;;;;;;5.47;1.90;;;13.90;96.50;;;;;;5051401;28;20503;-54
2022/11/05 12:09:54;;;;;;;3.17;1.60;;;13.90;27.00;;;;;;5049884;28;20513;-54
2022/11/05 12:12:26;;;;;;;7.30;1.87;;;14.10;27.60;;;;;;5048235;28;20497;-53
2022/11/05 12:14:59;;;;;;;8.73;2.50;;;13.90;22.80;;;;;;5053533;28;20559;-54
2022/11/05 12:17:38;;;;;;;10.67;2.47;;;13.60;99.90;;;;;;5053900;28;20481;-52
2022/11/05 12:20:19;;;;;;;7.50;2.17;;;12.90;99.90;;;;;;5049253;28;20510;-52
2022/11/05 12:23:21;;;;;;;4.77;1.80;;;13.10;99.90;;;;;;5050671;28;20515;-52
2022/11/05 12:25:55;;;;;;;3.57;1.50;;;13.70;99.90;;;;;;5053807;28;20477;-52
2022/11/05 12:28:46;;;;;;;6.80;2.23;;;13.50;95.10;;;;;;5052105;28;20555;-52
2022/11/05 12:31:22;;;;;;;9.10;1.93;;;13.20;99.90;;;;;;5051934;28;20512;-52
2022/11/05 12:33:59;;;;;;;6.80;2.37;;;12.90;99.90;;;;;;5051208;28;20485;-52
2022/11/05 12:36:39;;;;;;;9.77;2.47;;;13.20;99.90;;;;;;5051584;28;20502;-51
2022/11/05 12:39:25;;;;;;;11.70;2.23;;;13.10;99.90;;;;;;5044108;28;20551;-53
2022/11/05 12:41:59;;;;;;;5.00;1.90;;;12.80;99.90;;;;;;5052619;28;20902;-54
2022/11/05 12:44:50;;;;;;;6.20;2.10;;;12.90;99.90;;;;;;5051274;28;20559;-52
2022/11/05 12:47:31;;;;;;;8.77;2.60;;;12.80;99.90;;;;;;5054362;28;20956;-52
2022/11/05 12:50:11;;;;;;;2.90;1.80;;;12.70;99.90;;;;;;5051989;28;20914;-54
2022/11/05 12:53:17;;;;;;;9.47;2.37;;;12.70;99.90;;;;;;5041469;28;20554;-54
2022/11/05 12:55:48;;;;;;;6.50;3.60;;;13.00;99.90;;;;;;5033991;28;20478;-53
2022/11/05 12:58:21;;;;;;;7.13;3.87;;;13.20;99.90;;;;;;5058741;28;20481;-53
2022/11/05 13:00:54;;;;;;;4.30;2.37;;;13.10;99.90;;;;;;5052234;28;20935;-53
2022/11/05 13:03:30;;;;;;;3.13;2.00;;;13.10;99.90;;;;;;5033615;28;20474;-53
2022/11/05 13:06:01;;;;;;;7.63;1.90;;;13.20;99.90;;;;;;5034302;28;20694;-52
2022/11/05 13:08:33;;;;;;;5.33;2.17;;;12.80;99.90;;;;;;5049165;28;20571;-52
2022/11/05 13:11:11;;;;;;;7.00;2.03;;;12.40;99.90;;;;;;5053292;28;20495;-54
2022/11/05 13:13:42;;;;;;;5.10;2.43;;;12.30;99.90;;;;;;5051974;28;20489;-53
2022/11/05 13:16:15;;;;;;;3.10;1.70;;;12.70;99.90;;;;;;5053651;28;20489;-53
2022/11/05 13:18:46;;;;;;;5.40;2.03;;;13.10;99.90;;;;;;5051469;28;20595;-54
2022/11/05 13:21:17;;;;;;;5.27;3.00;;;13.30;99.90;;;;;;5051403;28;20547;-54
2022/11/05 13:23:47;;;;;;;6.13;2.50;;;13.00;99.90;;;;;;5049772;28;20490;-54
2022/11/05 13:26:19;;;;;;;4.60;1.90;;;12.60;99.90;;;;;;5047601;28;20476;-52
2022/11/05 13:28:52;;;;;;;6.77;2.40;;;12.00;99.90;;;;;;5046277;28;21161;-53
2022/11/05 13:31:23;;;;;;;7.60;2.10;;;11.80;99.90;;;;;;5046647;28;20486;-52
2022/11/05 13:33:52;;;;;;;4.83;2.33;;;12.10;99.90;;;;;;5048217;28;20486;-53
2022/11/05 13:39:16;;;;;;;10.30;2.77;;;13.40;99.90;;;;;;5044749;28;20477;-52
2022/11/05 13:41:56;;;;;;;10.50;2.70;;;13.60;27.90;;;;;;5044753;28;20493;-54
2022/11/05 13:44:47;;;;;;;4.13;1.70;;;13.40;27.30;;;;;;5052747;28;20472;-54
2022/11/05 13:47:27;;;;;;;5.37;2.83;;;13.00;20.30;;;;;;5048390;28;20552;-52